Time;durP1;ratioP1;P1;durP2;ratioP2;P2;SDS_P1;SDS_P2;PMS_P1;PMS_P2;Temp;Humidity;BMP_temperature;BMP_pressure;BME280_temperature;BME280_humidity;BME280_pressure;Samples;Min_cycle;Max_cycle;Signal;HPM_P1;HPM_P2
2022/10/05 00:00:46;;;;;;;8.20;4.00;;;15.80;1.00;;;;;;5017506;28;20295;-51
2022/10/05 00:03:13;;;;;;;5.10;4.10;;;15.90;1.00;;;;;;5019474;28;20218;-52
2022/10/05 00:05:41;;;;;;;4.83;3.90;;;15.80;1.00;;;;;;5027047;28;20236;-52
2022/10/05 00:08:18;;;;;;;7.07;4.20;;;15.70;1.00;;;;;;5019789;28;20238;-52
2022/10/05 00:10:46;;;;;;;5.30;4.10;;;15.70;1.00;;;;;;5018394;28;20194;-52
2022/10/05 00:13:21;;;;;;;6.73;4.77;;;15.70;1.00;;;;;;5027072;28;20716;-52
2022/10/05 00:15:49;;;;;;;7.03;4.90;;;15.70;99.90;;;;;;5021192;28;20216;-52
2022/10/05 00:18:20;;;;;;;6.57;4.40;;;15.70;99.90;;;;;;5026165;28;20644;-52
2022/10/05 00:20:48;;;;;;;6.90;3.80;;;15.60;1.00;;;;;;5021745;28;20217;-51
2022/10/05 00:23:30;;;;;;;8.00;4.97;;;15.70;99.90;;;;;;5023558;28;20587;-51
2022/10/05 00:26:25;;;;;;;6.13;4.43;;;15.60;99.90;;;;;;5024235;28;20197;-51
2022/10/05 00:28:53;;;;;;;6.40;4.30;;;15.60;1.00;;;;;;5022963;28;20235;-52
2022/10/05 00:31:25;;;;;;;6.10;4.33;;;15.70;1.00;;;;;;5013758;28;20197;-52
2022/10/05 00:33:53;;;;;;;5.97;4.43;;;15.70;99.90;;;;;;5022786;28;20680;-52
2022/10/05 00:36:20;;;;;;;7.47;4.97;;;15.70;1.00;;;;;;5027386;28;20203;-52
2022/10/05 00:38:47;;;;;;;10.13;4.90;;;15.70;99.90;;;;;;5024127;28;20248;-53
2022/10/05 00:41:28;;;;;;;8.13;4.90;;;15.70;99.90;;;;;;5018651;28;20208;-52
2022/10/05 00:44:17;;;;;;;6.53;4.40;;;15.60;1.00;;;;;;5019553;28;20217;-53
2022/10/05 00:47:02;;;;;;;6.70;5.03;;;15.50;1.00;;;;;;5024318;28;20534;-52
2022/10/05 00:49:35;;;;;;;7.00;4.50;;;15.60;30.40;;;;;;5024612;28;20245;-52
2022/10/05 00:52:44;;;;;;;6.23;4.17;;;15.70;1.00;;;;;;5031716;28;20569;-52
2022/10/05 00:55:38;;;;;;;7.23;4.60;;;15.80;1.00;;;;;;5025957;28;20211;-52
2022/10/05 00:58:23;;;;;;;6.00;4.60;;;15.80;99.90;;;;;;5023548;28;20240;-52
2022/10/05 01:00:58;;;;;;;6.83;4.43;;;15.80;99.90;;;;;;5022285;28;20207;-51
2022/10/05 01:03:38;;;;;;;6.20;4.70;;;15.80;99.90;;;;;;5024993;28;20688;-52
2022/10/05 01:06:35;;;;;;;9.33;4.50;;;15.70;1.00;;;;;;5024536;28;20298;-51
2022/10/05 01:09:18;;;;;;;7.30;4.63;;;15.70;1.00;;;;;;5013600;28;20537;-52
2022/10/05 01:11:49;;;;;;;7.27;4.97;;;15.70;1.00;;;;;;5022257;28;20291;-50
2022/10/05 01:15:09;;;;;;;9.10;5.27;;;15.70;1.00;;;;;;5027135;28;20548;-52
2022/10/05 01:17:48;;;;;;;8.10;4.90;;;15.70;1.00;;;;;;5031567;28;20567;-52
2022/10/05 01:20:38;;;;;;;8.47;4.87;;;15.60;1.00;;;;;;5012502;28;20660;-52
2022/10/05 01:23:50;;;;;;;6.57;4.70;;;15.60;99.90;;;;;;5014036;28;20236;-51
2022/10/05 01:27:14;;;;;;;8.10;5.17;;;15.50;99.90;;;;;;5025530;28;20216;-52
2022/10/05 01:30:02;;;;;;;8.30;5.07;;;15.40;1.00;;;;;;5030845;28;20291;-52
2022/10/05 01:32:46;;;;;;;7.47;5.03;;;15.50;1.00;;;;;;5045584;28;20193;-52
2022/10/05 01:35:40;;;;;;;6.67;5.50;;;15.40;99.90;;;;;;5027561;28;20211;-52
2022/10/05 01:38:27;;;;;;;8.77;5.30;;;15.40;1.00;;;;;;5028914;28;20781;-53
2022/10/05 01:41:18;;;;;;;7.83;5.17;;;15.50;99.90;;;;;;5016747;28;20196;-52
2022/10/05 01:44:03;;;;;;;6.37;5.13;;;15.50;1.00;;;;;;5023387;28;20217;-53
2022/10/05 01:46:45;;;;;;;9.30;5.13;;;15.40;99.90;;;;;;5017836;28;20211;-52
2022/10/05 01:49:33;;;;;;;6.13;5.00;;;15.50;1.00;;;;;;5013178;28;20223;-51
2022/10/05 01:52:25;;;;;;;8.77;5.57;;;15.50;1.00;;;;;;5015046;28;20192;-51
2022/10/05 01:55:25;;;;;;;6.37;4.70;;;15.50;99.90;;;;;;5021803;28;20215;-51
2022/10/05 01:58:05;;;;;;;8.87;5.90;;;15.50;99.90;;;;;;5021944;28;20750;-52
2022/10/05 02:00:42;;;;;;;8.33;5.20;;;15.50;1.00;;;;;;5025791;28;20581;-51
2022/10/05 02:03:25;;;;;;;8.13;6.30;;;15.50;1.00;;;;;;5023346;28;20204;-51
2022/10/05 02:05:57;;;;;;;8.23;5.77;;;15.40;1.00;;;;;;5022209;28;20262;-52
2022/10/05 02:08:37;;;;;;;8.67;5.80;;;15.40;1.00;;;;;;5022702;28;20216;-52
2022/10/05 02:11:10;;;;;;;8.83;5.93;;;15.30;1.00;;;;;;5023985;28;20197;-52
2022/10/05 02:13:54;;;;;;;8.17;5.80;;;15.30;1.00;;;;;;5025436;28;20561;-52
2022/10/05 02:16:43;;;;;;;7.20;5.40;;;15.30;99.90;;;;;;5025451;28;20862;-52
2022/10/05 02:19:34;;;;;;;6.50;4.87;;;15.30;92.60;;;;;;5023063;28;20205;-53
2022/10/05 02:22:16;;;;;;;8.60;6.27;;;15.30;99.90;;;;;;5029056;28;20204;-51
2022/10/05 02:24:52;;;;;;;10.97;5.70;;;15.30;99.90;;;;;;5026411;28;20579;-52
2022/10/05 02:27:26;;;;;;;10.00;5.50;;;15.30;99.90;;;;;;5029036;28;20215;-53
2022/10/05 02:29:58;;;;;;;7.70;6.03;;;15.30;99.90;;;;;;5025408;28;20197;-52
2022/10/05 02:32:31;;;;;;;9.80;5.40;;;15.20;99.90;;;;;;5026627;28;20200;-52
2022/10/05 02:35:08;;;;;;;7.23;5.90;;;15.20;1.00;;;;;;5016741;28;20202;-51
2022/10/05 02:38:00;;;;;;;9.03;5.73;;;15.30;1.00;;;;;;5018854;28;20684;-52
2022/10/05 02:40:38;;;;;;;8.57;5.67;;;15.20;99.90;;;;;;5020971;28;20222;-52
2022/10/05 02:43:29;;;;;;;8.00;5.87;;;15.20;1.00;;;;;;5018023;28;20655;-53
2022/10/05 02:46:20;;;;;;;8.93;5.90;;;15.20;1.00;;;;;;5018267;28;20649;-53
2022/10/05 02:49:05;;;;;;;10.67;6.20;;;15.20;1.00;;;;;;5022654;28;20199;-52
2022/10/05 02:51:39;;;;;;;9.30;6.17;;;15.20;1.00;;;;;;5015385;28;20203;-52
2022/10/05 02:54:18;;;;;;;9.87;6.47;;;15.20;1.00;;;;;;5019724;28;21029;-52
2022/10/05 02:56:58;;;;;;;8.17;6.23;;;15.10;1.00;;;;;;5014304;28;20230;-52
2022/10/05 02:59:38;;;;;;;7.63;5.70;;;15.10;99.90;;;;;;5018441;28;20206;-53
2022/10/05 03:02:20;;;;;;;9.03;5.60;;;15.20;1.00;;;;;;5018700;28;20436;-53
2022/10/05 03:04:58;;;;;;;9.00;5.73;;;15.20;99.90;;;;;;5021281;28;20216;-52
2022/10/05 03:07:42;;;;;;;8.53;5.87;;;15.20;1.00;;;;;;5021524;28;20302;-53
2022/10/05 03:10:24;;;;;;;6.93;5.03;;;15.30;1.00;;;;;;5020804;28;20194;-52
2022/10/05 03:13:07;;;;;;;10.03;6.80;;;15.30;99.90;;;;;;5017505;28;20195;-52
2022/10/05 03:15:47;;;;;;;9.73;5.80;;;15.20;99.90;;;;;;5019386;28;20209;-52
2022/10/05 03:18:45;;;;;;;6.93;5.73;;;15.30;99.90;;;;;;5020933;28;20710;-52
2022/10/05 03:21:31;;;;;;;11.57;6.00;;;15.20;99.90;;;;;;5024353;28;20215;-52
2022/10/05 03:24:19;;;;;;;7.07;5.60;;;15.20;1.00;;;;;;5014851;28;20647;-51
2022/10/05 03:27:01;;;;;;;10.47;5.43;;;15.20;99.90;;;;;;5020724;28;20198;-52
2022/10/05 03:29:40;;;;;;;12.37;5.87;;;15.20;99.90;;;;;;5021736;28;20191;-52
2022/10/05 03:32:31;;;;;;;8.17;5.50;;;15.20;1.00;;;;;;5014998;28;20198;-52
2022/10/05 03:35:19;;;;;;;7.43;5.50;;;15.20;99.90;;;;;;5022457;28;20220;-52
2022/10/05 03:37:52;;;;;;;7.87;5.53;;;15.20;1.00;;;;;;5018281;28;20227;-52
2022/10/05 03:40:35;;;;;;;9.90;5.23;;;15.20;99.90;;;;;;5015645;28;20198;-53
2022/10/05 03:43:02;;;;;;;9.03;6.57;;;15.20;99.90;;;;;;5017809;28;20203;-52
2022/10/05 03:45:52;;;;;;;6.40;5.40;;;15.20;19.90;;;;;;5016174;28;20246;-52
2022/10/05 03:48:33;;;;;;;7.00;5.20;;;15.20;99.90;;;;;;5022484;28;20214;-51
2022/10/05 03:51:19;;;;;;;7.10;5.10;;;15.20;1.00;;;;;;5023218;28;20199;-52
2022/10/05 03:53:51;;;;;;;7.70;6.07;;;15.20;99.90;;;;;;5019599;28;20296;-53
2022/10/05 03:56:36;;;;;;;10.47;5.53;;;15.30;1.00;;;;;;5017889;28;20237;-51
2022/10/05 03:59:20;;;;;;;7.53;4.90;;;15.30;1.00;;;;;;5020507;28;20198;-52
2022/10/05 04:02:10;;;;;;;8.17;4.97;;;15.30;1.00;;;;;;5020280;28;20218;-52
2022/10/05 04:04:49;;;;;;;11.17;5.97;;;15.20;7.90;;;;;;5018504;28;20225;-51
2022/10/05 04:07:55;;;;;;;9.00;5.67;;;15.20;1.00;;;;;;5018901;28;20206;-51
2022/10/05 04:10:45;;;;;;;8.10;5.60;;;15.10;1.00;;;;;;5015721;28;20195;-52
2022/10/05 04:13:36;;;;;;;9.70;5.00;;;15.00;1.00;;;;;;5018966;28;20693;-51
2022/10/05 04:16:14;;;;;;;6.20;5.43;;;15.10;99.90;;;;;;5021214;28;20289;-52
2022/10/05 04:18:49;;;;;;;11.03;5.70;;;15.00;1.00;;;;;;5017592;28;20199;-53
2022/10/05 04:21:51;;;;;;;6.93;5.40;;;15.00;99.90;;;;;;5019194;28;20202;-52
2022/10/05 04:24:58;;;;;;;10.63;6.40;;;15.10;99.90;;;;;;5016846;28;20214;-51
2022/10/05 04:27:38;;;;;;;9.73;6.67;;;15.00;1.00;;;;;;5039729;28;20281;-53
2022/10/05 04:30:13;;;;;;;8.97;5.93;;;15.00;1.00;;;;;;5034561;28;20198;-53
2022/10/05 04:32:56;;;;;;;8.20;5.17;;;14.90;1.00;;;;;;5036478;28;20203;-53
2022/10/05 04:36:10;;;;;;;10.27;6.10;;;15.00;1.00;;;;;;5036821;28;20259;-52
2022/10/05 04:38:53;;;;;;;7.27;5.93;;;15.00;1.00;;;;;;5028104;28;20578;-53
2022/10/05 04:41:28;;;;;;;9.00;6.13;;;15.00;1.00;;;;;;5040288;28;20217;-52
2022/10/05 04:44:10;;;;;;;8.50;5.47;;;15.00;1.00;;;;;;5035501;28;20235;-52
2022/10/05 04:46:43;;;;;;;10.90;5.57;;;15.00;1.00;;;;;;5035996;28;20287;-52
2022/10/05 04:49:22;;;;;;;7.23;5.80;;;15.00;1.00;;;;;;5028482;28;20295;-52
2022/10/05 04:52:19;;;;;;;10.23;5.70;;;15.00;1.00;;;;;;5034947;28;20670;-52
2022/10/05 04:55:24;;;;;;;8.27;5.60;;;14.90;99.90;;;;;;5033890;28;20297;-53
2022/10/05 04:58:09;;;;;;;8.53;5.57;;;14.90;1.00;;;;;;5032353;28;20257;-52
2022/10/05 05:00:48;;;;;;;7.00;5.90;;;14.80;1.00;;;;;;5032170;28;20212;-54
2022/10/05 05:03:35;;;;;;;9.10;5.40;;;14.80;1.00;;;;;;5016977;28;20213;-53
2022/10/05 05:06:22;;;;;;;7.43;6.13;;;14.80;1.00;;;;;;5018005;28;20226;-53
2022/10/05 05:09:31;;;;;;;10.57;6.00;;;14.80;1.00;;;;;;5020969;28;20213;-52
2022/10/05 05:12:09;;;;;;;5.83;5.10;;;14.70;1.00;;;;;;5019995;28;20213;-51
2022/10/05 05:15:01;;;;;;;8.17;5.10;;;14.70;1.00;;;;;;5027403;28;20207;-53
2022/10/05 05:17:47;;;;;;;8.87;5.03;;;14.80;1.00;;;;;;5028362;28;20213;-53
2022/10/05 05:20:19;;;;;;;7.23;4.83;;;14.80;1.00;;;;;;5030537;28;20212;-52
2022/10/05 05:22:59;;;;;;;5.83;4.70;;;14.80;1.00;;;;;;5018357;28;20200;-53
2022/10/05 05:25:34;;;;;;;9.20;4.73;;;14.80;1.00;;;;;;5018393;28;20691;-52
2022/10/05 05:28:15;;;;;;;8.27;4.85;;;14.80;1.00;;;;;;4672326;28;10001317;-51
2022/10/05 05:30:49;;;;;;;8.20;4.57;;;14.80;1.00;;;;;;5002514;28;20909;-51
2022/10/05 05:33:32;;;;;;;7.00;4.30;;;14.90;99.90;;;;;;5016253;28;20563;-52
2022/10/05 05:36:04;;;;;;;4.87;3.93;;;14.90;99.90;;;;;;5013708;28;20199;-52
2022/10/05 05:38:59;;;;;;;4.47;3.70;;;14.90;1.00;;;;;;5015467;28;20194;-52
2022/10/05 05:42:12;;;;;;;5.43;4.00;;;15.00;99.90;;;;;;5013583;28;20201;-52
2022/10/05 05:44:51;;;;;;;6.73;4.07;;;14.90;99.90;;;;;;5010860;28;20836;-52
2022/10/05 05:47:39;;;;;;;5.47;3.77;;;15.00;99.90;;;;;;5012734;28;20219;-52
2022/10/05 05:50:26;;;;;;;4.57;3.77;;;15.00;1.00;;;;;;5021382;28;20264;-52
2022/10/05 05:53:04;;;;;;;7.87;4.10;;;15.00;1.00;;;;;;5016975;28;20288;-52
2022/10/05 05:55:54;;;;;;;7.20;3.90;;;15.00;1.00;;;;;;5019569;28;20209;-51
2022/10/05 05:58:27;;;;;;;4.97;4.07;;;15.00;1.00;;;;;;5015337;28;20798;-51
2022/10/05 06:01:08;;;;;;;5.33;3.30;;;14.90;1.00;;;;;;5019588;28;20209;-51
2022/10/05 06:04:04;;;;;;;3.83;3.40;;;14.80;1.00;;;;;;5017340;28;20224;-52
2022/10/05 06:06:34;;;;;;;5.20;3.30;;;14.90;1.00;;;;;;5018605;28;21071;-51
2022/10/05 06:09:10;;;;;;;5.97;3.97;;;14.90;1.00;;;;;;5019302;28;20566;-52
2022/10/05 06:11:44;;;;;;;6.03;3.90;;;14.90;1.00;;;;;;5013127;28;20202;-52
2022/10/05 06:14:24;;;;;;;6.87;4.03;;;14.90;1.00;;;;;;5013696;28;20228;-51
2022/10/05 06:17:09;;;;;;;6.67;3.60;;;14.90;1.00;;;;;;5009773;28;20237;-51
2022/10/05 06:19:37;;;;;;;4.37;3.60;;;14.90;1.00;;;;;;5017454;28;20191;-52
2022/10/05 06:22:35;;;;;;;5.60;3.60;;;14.90;71.10;;;;;;5021989;28;20290;-52
2022/10/05 06:25:11;;;;;;;8.53;3.83;;;15.00;1.00;;;;;;5014897;28;20317;-52
2022/10/05 06:28:01;;;;;;;5.60;3.53;;;14.90;1.00;;;;;;5018394;28;20201;-51
2022/10/05 06:30:54;;;;;;;4.63;3.50;;;15.00;1.00;;;;;;5013313;28;20224;-51
2022/10/05 06:33:43;;;;;;;4.60;3.77;;;15.00;1.00;;;;;;5021600;28;20685;-51
2022/10/05 06:36:37;;;;;;;6.83;3.97;;;15.00;99.90;;;;;;5018549;28;20225;-51
2022/10/05 06:39:17;;;;;;;4.03;3.20;;;15.10;99.90;;;;;;5018075;28;20237;-51
2022/10/05 06:42:05;;;;;;;4.93;3.10;;;15.00;99.90;;;;;;5018398;28;20210;-51
2022/10/05 06:44:40;;;;;;;4.93;3.60;;;15.00;1.00;;;;;;5010758;28;20903;-52
2022/10/05 06:47:16;;;;;;;8.57;3.70;;;15.00;1.00;;;;;;5017786;28;20210;-51
2022/10/05 06:50:15;;;;;;;5.83;3.73;;;15.00;99.90;;;;;;5016681;28;20199;-51
2022/10/05 06:52:53;;;;;;;6.93;4.10;;;15.00;99.90;;;;;;5019014;28;20784;-51
2022/10/05 06:55:20;;;;;;;9.23;5.40;;;15.10;1.00;;;;;;5016926;28;20214;-52
2022/10/05 06:58:06;;;;;;;4.73;3.60;;;15.20;1.00;;;;;;5014246;28;20706;-58
2022/10/05 07:00:59;;;;;;;4.10;3.70;;;15.10;1.00;;;;;;5011566;28;20205;-52
2022/10/05 07:04:14;;;;;;;8.97;3.37;;;15.00;1.00;;;;;;5019464;28;20200;-54
2022/10/05 07:06:57;;;;;;;7.13;4.70;;;15.00;1.00;;;;;;5020791;28;20233;-53
2022/10/05 07:10:03;;;;;;;7.37;4.00;;;15.10;1.10;;;;;;5011472;28;20884;-53
2022/10/05 07:12:30;;;;;;;5.47;4.20;;;15.10;6.10;;;;;;5012949;28;20207;-53
2022/10/05 07:15:28;;;;;;;6.10;3.93;;;15.10;99.90;;;;;;5015893;28;20298;-52
2022/10/05 07:18:13;;;;;;;5.20;4.10;;;15.10;1.00;;;;;;5015245;28;20653;-52
2022/10/05 07:21:16;;;;;;;5.57;3.87;;;15.10;99.90;;;;;;5016596;28;20194;-53
2022/10/05 07:23:51;;;;;;;4.67;4.07;;;15.10;99.90;;;;;;5015201;28;20206;-52
2022/10/05 07:26:31;;;;;;;5.43;4.10;;;15.10;1.00;;;;;;5012522;28;20284;-52
2022/10/05 07:29:17;;;;;;;5.77;3.80;;;15.10;99.90;;;;;;5013462;28;20197;-51
2022/10/05 07:31:52;;;;;;;10.77;3.63;;;15.10;99.90;;;;;;5014407;28;20666;-53
2022/10/05 07:34:28;;;;;;;3.70;3.07;;;15.10;1.00;;;;;;5014594;28;20745;-53
2022/10/05 07:40:22;;;;;;;4.23;3.10;;;15.20;1.00;;;;;;5010491;28;20285;-52
2022/10/05 07:43:04;;;;;;;4.97;2.43;;;15.30;1.00;;;;;;5014652;28;20571;-51
2022/10/05 07:46:08;;;;;;;4.53;3.33;;;15.30;99.90;;;;;;5012055;28;20272;-52
2022/10/05 07:48:54;;;;;;;5.27;2.67;;;15.40;1.00;;;;;;5015279;28;20201;-53
2022/10/05 07:51:27;;;;;;;3.30;2.67;;;15.50;99.90;;;;;;5013063;28;20679;-52
2022/10/05 07:53:57;;;;;;;5.83;2.70;;;15.40;99.90;;;;;;5021230;28;20570;-51
2022/10/05 07:56:38;;;;;;;3.13;2.47;;;15.50;56.10;;;;;;5020639;28;20220;-51
2022/10/05 07:59:29;;;;;;;4.17;2.30;;;15.60;99.90;;;;;;5015016;28;20204;-52
2022/10/05 08:02:05;;;;;;;4.23;2.17;;;15.60;39.10;;;;;;5016534;28;20243;-52
2022/10/05 08:04:50;;;;;;;2.70;2.30;;;15.60;1.00;;;;;;5017588;28;20210;-50
2022/10/05 08:07:17;;;;;;;2.60;2.40;;;15.60;1.00;;;;;;5014672;28;20244;-51
2022/10/05 08:10:16;;;;;;;4.50;2.50;;;15.70;1.00;;;;;;5017588;28;20203;-50
2022/10/05 08:12:57;;;;;;;3.53;2.17;;;15.70;1.00;;;;;;5016559;28;20216;-51
2022/10/05 08:15:40;;;;;;;2.87;2.30;;;15.70;1.00;;;;;;5007153;28;20794;-52
2022/10/05 08:18:41;;;;;;;2.67;2.30;;;15.80;1.00;;;;;;5014896;28;20546;-52
2022/10/05 08:21:12;;;;;;;3.50;2.57;;;15.80;99.90;;;;;;5015885;28;20568;-53
2022/10/05 08:24:33;;;;;;;3.57;2.10;;;15.80;1.00;;;;;;5019811;28;20195;-52
2022/10/05 08:27:18;;;;;;;3.10;2.33;;;15.90;28.90;;;;;;5018934;28;20230;-51
2022/10/05 08:30:14;;;;;;;3.67;2.43;;;15.90;99.90;;;;;;5017761;28;21172;-52
2022/10/05 08:33:09;;;;;;;5.20;2.50;;;16.00;99.90;;;;;;5018376;28;20611;-52
2022/10/05 08:35:42;;;;;;;4.47;2.93;;;16.10;99.90;;;;;;5025995;28;20741;-52
2022/10/05 08:38:15;;;;;;;4.13;3.50;;;16.10;99.90;;;;;;5020870;28;20678;-52
2022/10/05 08:41:13;;;;;;;5.10;3.43;;;16.10;99.90;;;;;;5023621;28;20595;-52
2022/10/05 08:43:49;;;;;;;5.07;3.40;;;16.20;99.90;;;;;;5011852;28;20223;-52
2022/10/05 08:46:37;;;;;;;8.33;3.63;;;16.20;1.00;;;;;;5015850;28;20556;-52
2022/10/05 08:49:04;;;;;;;8.67;3.10;;;16.30;1.00;;;;;;5027577;28;20496;-52
2022/10/05 08:51:34;;;;;;;4.73;3.40;;;16.30;99.90;;;;;;5024421;28;20206;-52
2022/10/05 08:54:19;;;;;;;4.83;3.33;;;16.20;99.90;;;;;;5014523;28;20189;-52
2022/10/05 08:57:04;;;;;;;5.50;3.57;;;16.40;99.90;;;;;;5018678;28;20234;-51
2022/10/05 09:00:12;;;;;;;5.17;3.37;;;16.40;91.70;;;;;;5023989;28;20203;-51
2022/10/05 09:03:10;;;;;;;5.77;3.40;;;16.30;1.00;;;;;;5012641;28;20586;-52
2022/10/05 09:05:56;;;;;;;4.50;3.83;;;16.30;64.40;;;;;;5017250;28;20228;-52
2022/10/05 09:08:32;;;;;;;5.17;3.23;;;16.40;62.50;;;;;;5032245;28;20198;-52
2022/10/05 09:11:39;;;;;;;4.40;3.80;;;16.40;1.00;;;;;;5013390;28;20668;-51
2022/10/05 09:14:16;;;;;;;5.17;3.17;;;16.30;1.00;;;;;;5016236;28;20220;-52
2022/10/05 09:17:01;;;;;;;6.67;3.40;;;16.40;1.00;;;;;;5016978;28;20205;-52
2022/10/05 09:19:51;;;;;;;3.93;2.70;;;16.40;1.00;;;;;;5013167;28;20202;-53
2022/10/05 09:22:35;;;;;;;6.00;3.50;;;16.40;1.00;;;;;;5014214;28;20616;-51
2022/10/05 09:25:21;;;;;;;4.37;3.20;;;16.40;1.00;;;;;;5015748;28;20252;-52
2022/10/05 09:27:53;;;;;;;3.50;2.97;;;16.50;99.90;;;;;;5021040;28;20202;-51
2022/10/05 09:30:45;;;;;;;10.97;3.80;;;16.60;99.90;;;;;;5014650;28;20206;-51
2022/10/05 09:33:37;;;;;;;3.83;3.23;;;16.70;1.00;;;;;;5019263;28;20206;-52
2022/10/05 09:36:23;;;;;;;5.93;3.10;;;16.70;1.00;;;;;;5015463;28;20819;-52
2022/10/05 09:38:55;;;;;;;6.17;3.43;;;16.60;1.00;;;;;;5023041;28;20210;-52
2022/10/05 09:41:28;;;;;;;6.43;2.80;;;16.60;99.90;;;;;;5017287;28;20201;-52
2022/10/05 09:44:17;;;;;;;2.90;2.50;;;16.60;1.00;;;;;;5015976;28;20202;-51
2022/10/05 09:47:16;;;;;;;5.30;2.87;;;16.70;1.00;;;;;;5015386;28;20230;-52
2022/10/05 09:49:54;;;;;;;4.80;3.13;;;16.80;1.00;;;;;;5018097;28;20211;-51
2022/10/05 09:52:41;;;;;;;5.50;3.27;;;16.90;1.00;;;;;;5021823;28;20193;-51
2022/10/05 09:55:17;;;;;;;4.73;3.10;;;16.90;1.00;;;;;;5015576;28;20237;-52
2022/10/05 09:58:11;;;;;;;4.60;3.27;;;17.00;99.90;;;;;;5018080;28;20707;-52
2022/10/05 10:01:06;;;;;;;4.67;3.60;;;17.00;99.90;;;;;;5025871;28;20197;-52
2022/10/05 10:03:58;;;;;;;4.17;3.20;;;17.20;1.00;;;;;;5015973;28;20193;-52
2022/10/05 10:06:40;;;;;;;6.33;3.77;;;17.10;1.00;;;;;;5013652;28;20694;-52
2022/10/05 10:09:49;;;;;;;3.17;2.87;;;17.20;99.90;;;;;;5014937;28;20652;-52
2022/10/05 10:12:21;;;;;;;5.40;3.30;;;17.30;1.00;;;;;;5013234;28;20204;-51
2022/10/05 10:15:09;;;;;;;4.17;3.37;;;17.30;1.00;;;;;;5014514;28;20208;-52
2022/10/05 10:17:45;;;;;;;4.67;3.27;;;17.30;1.00;;;;;;5025599;28;20221;-51
2022/10/05 10:20:46;;;;;;;4.17;3.37;;;17.20;1.00;;;;;;5017557;28;20557;-52
2022/10/05 10:23:38;;;;;;;4.53;3.13;;;17.30;1.00;;;;;;5019999;28;20205;-52
2022/10/05 10:26:08;;;;;;;6.30;3.23;;;17.30;99.90;;;;;;5011474;28;20220;-52
2022/10/05 10:28:51;;;;;;;9.07;3.57;;;17.30;99.90;;;;;;5012879;28;20211;-52
2022/10/05 10:31:35;;;;;;;10.30;4.27;;;17.20;96.60;;;;;;5016993;28;20286;-53
2022/10/05 10:34:28;;;;;;;4.20;3.00;;;17.20;52.40;;;;;;5020624;28;20198;-52
2022/10/05 10:37:33;;;;;;;3.73;2.90;;;17.20;69.50;;;;;;5026151;28;20307;-52
2022/10/05 10:40:24;;;;;;;3.00;2.70;;;17.30;99.90;;;;;;5017279;28;20295;-52
2022/10/05 10:42:55;;;;;;;3.87;2.43;;;17.30;99.90;;;;;;5024864;28;20555;-51
2022/10/05 10:45:27;;;;;;;3.57;2.40;;;17.40;99.90;;;;;;5029374;28;20227;-52
2022/10/05 10:48:10;;;;;;;5.10;3.07;;;17.50;22.40;;;;;;5024980;28;20327;-52
2022/10/05 10:51:02;;;;;;;4.47;2.83;;;17.50;1.00;;;;;;5024879;28;20681;-51
2022/10/05 10:53:56;;;;;;;3.30;3.00;;;17.60;88.00;;;;;;5015191;28;20296;-51
2022/10/05 10:56:47;;;;;;;4.10;3.60;;;17.60;1.00;;;;;;5016226;28;20212;-52
2022/10/05 10:59:55;;;;;;;3.57;2.37;;;17.60;1.00;;;;;;5022816;28;20300;-52
2022/10/05 11:02:55;;;;;;;6.67;3.17;;;17.70;1.00;;;;;;5019903;28;20234;-52
2022/10/05 11:05:22;;;;;;;4.87;2.80;;;17.70;1.00;;;;;;5015909;28;20284;-52
2022/10/05 11:08:26;;;;;;;2.30;2.10;;;17.70;1.00;;;;;;5019972;28;20297;-51
2022/10/05 11:11:13;;;;;;;4.63;2.50;;;17.70;1.00;;;;;;5018813;28;20202;-51
2022/10/05 11:14:03;;;;;;;3.53;2.20;;;17.80;1.00;;;;;;5017898;28;20295;-52
2022/10/05 11:17:04;;;;;;;2.13;1.50;;;17.80;1.00;;;;;;5021238;28;20215;-51
2022/10/05 11:19:54;;;;;;;3.83;2.00;;;17.90;1.00;;;;;;5022584;28;20201;-52
2022/10/05 11:22:43;;;;;;;4.07;1.97;;;18.00;99.90;;;;;;5017720;28;20587;-52
2022/10/05 11:25:43;;;;;;;2.10;1.80;;;18.10;99.90;;;;;;5021512;28;20209;-52
2022/10/05 11:28:35;;;;;;;3.93;1.70;;;18.20;99.90;;;;;;5025345;28;20199;-53
2022/10/05 11:31:17;;;;;;;2.67;1.90;;;18.20;17.70;;;;;;5019836;28;20220;-52
2022/10/05 11:34:02;;;;;;;1.97;1.70;;;18.20;1.00;;;;;;5032255;28;20534;-52
2022/10/05 11:36:59;;;;;;;3.97;1.63;;;18.30;1.00;;;;;;5024394;28;20517;-51
2022/10/05 11:39:54;;;;;;;2.07;1.50;;;18.30;1.00;;;;;;5015074;28;20211;-50
2022/10/05 11:42:39;;;;;;;4.13;1.53;;;18.50;1.00;;;;;;5020295;28;20205;-53
2022/10/05 11:45:12;;;;;;;1.77;1.47;;;18.70;1.00;;;;;;5021362;28;20204;-51
2022/10/05 11:47:57;;;;;;;3.50;1.93;;;18.80;1.00;;;;;;5012713;28;20241;-53
2022/10/05 11:50:34;;;;;;;3.63;1.70;;;18.80;1.00;;;;;;5021321;28;20197;-51
2022/10/05 11:53:12;;;;;;;2.60;1.27;;;18.80;1.00;;;;;;5019742;28;21718;-52
2022/10/05 11:56:07;;;;;;;5.20;1.80;;;18.70;1.00;;;;;;5023295;28;20210;-52
2022/10/05 11:58:42;;;;;;;3.87;1.87;;;19.00;1.00;;;;;;5021411;28;20194;-52
2022/10/05 12:01:22;;;;;;;3.63;1.60;;;19.00;1.00;;;;;;5015238;28;20690;-50
2022/10/05 12:03:56;;;;;;;4.27;1.47;;;19.00;99.90;;;;;;5019529;28;20209;-51
2022/10/05 12:06:43;;;;;;;3.10;1.77;;;18.80;99.90;;;;;;5018542;28;20682;-51
2022/10/05 12:09:25;;;;;;;5.40;1.93;;;18.80;99.90;;;;;;5020264;28;20575;-52
2022/10/05 12:12:17;;;;;;;2.67;1.50;;;18.80;1.00;;;;;;5018342;28;20546;-52
2022/10/05 12:14:53;;;;;;;2.43;1.60;;;19.00;1.00;;;;;;5016449;28;20206;-51
2022/10/05 12:17:31;;;;;;;4.80;1.67;;;19.30;23.30;;;;;;5015029;28;20209;-50
2022/10/05 12:20:06;;;;;;;3.33;1.67;;;19.70;99.90;;;;;;5014061;28;20317;-52
2022/10/05 12:23:05;;;;;;;5.27;1.80;;;19.50;1.00;;;;;;5016136;28;20215;-50
2022/10/05 12:25:44;;;;;;;4.67;1.87;;;19.40;99.90;;;;;;5022326;28;20682;-52
2022/10/05 12:28:22;;;;;;;4.23;1.63;;;19.30;99.90;;;;;;5015411;28;20219;-51
2022/10/05 12:31:17;;;;;;;14.80;7.47;;;19.40;99.90;;;;;;5017889;28;20247;-50
2022/10/05 12:34:01;;;;;;;3.23;1.60;;;19.40;99.90;;;;;;5027571;28;20618;-51
2022/10/05 12:36:51;;;;;;;5.27;2.40;;;19.30;99.90;;;;;;5016132;28;20728;-52
2022/10/05 12:39:48;;;;;;;3.00;1.67;;;19.30;99.90;;;;;;5023698;28;20211;-52
2022/10/05 12:42:39;;;;;;;3.47;1.43;;;19.30;99.90;;;;;;5014793;28;20660;-51
2022/10/05 12:45:27;;;;;;;3.00;1.77;;;19.50;99.90;;;;;;5021566;28;20213;-52
2022/10/05 12:48:25;;;;;;;3.97;1.63;;;19.50;99.90;;;;;;5020504;28;20223;-53
2022/10/05 12:51:18;;;;;;;8.17;1.70;;;19.70;1.00;;;;;;5019663;28;20667;-51
2022/10/05 12:54:12;;;;;;;1.70;1.30;;;19.80;93.80;;;;;;5015184;28;20226;-52
2022/10/05 12:56:50;;;;;;;4.93;2.27;;;20.00;99.90;;;;;;5014392;28;20233;-52
2022/10/05 12:59:33;;;;;;;5.50;1.43;;;20.30;6.40;;;;;;5017184;28;20657;-52
2022/10/05 13:02:11;;;;;;;4.80;1.70;;;20.40;1.00;;;;;;5023731;28;20578;-52
2022/10/05 13:05:09;;;;;;;7.53;2.37;;;20.60;1.00;;;;;;5018508;28;20204;-52
2022/10/05 13:07:55;;;;;;;3.73;1.70;;;20.40;1.00;;;;;;5023666;28;20221;-52
2022/10/05 13:10:41;;;;;;;11.77;2.67;;;20.50;1.00;;;;;;5021630;28;20600;-52
2022/10/05 13:13:56;;;;;;;14.13;2.93;;;20.40;1.00;;;;;;5015676;28;20203;-51
2022/10/05 13:16:29;;;;;;;19.60;4.33;;;20.40;1.00;;;;;;5019927;28;20219;-52
2022/10/05 13:19:24;;;;;;;33.13;6.27;;;20.40;1.00;;;;;;5016808;28;20287;-52
2022/10/05 13:22:19;;;;;;;5.60;1.80;;;20.60;1.00;;;;;;5011038;28;20203;-52
2022/10/05 13:25:08;;;;;;;3.53;1.53;;;20.40;1.00;;;;;;5008695;28;20230;-52
2022/10/05 13:27:44;;;;;;;1.97;1.30;;;20.40;1.00;;;;;;5014871;28;20216;-52
2022/10/05 13:30:17;;;;;;;29.87;6.17;;;20.30;1.00;;;;;;5011782;28;20198;-52
2022/10/05 13:33:14;;;;;;;1.60;1.30;;;20.50;1.00;;;;;;5015229;28;20195;-53
2022/10/05 13:35:55;;;;;;;4.57;1.30;;;20.60;1.00;;;;;;5017616;28;20290;-52
2022/10/05 13:38:53;;;;;;;4.87;1.53;;;20.70;1.00;;;;;;5010333;28;20655;-62
2022/10/05 13:41:54;;;;;;;2.60;1.43;;;20.70;1.00;;;;;;5026109;28;20651;-60
2022/10/05 13:44:39;;;;;;;3.33;1.37;;;20.30;1.00;;;;;;5018024;28;20295;-53
2022/10/05 13:47:49;;;;;;;3.27;1.10;;;20.10;1.00;;;;;;5000928;28;20226;-53
2022/10/05 13:50:27;;;;;;;2.20;1.03;;;19.90;1.00;;;;;;5029459;28;20642;-52
2022/10/05 13:53:15;;;;;;;2.53;1.10;;;20.30;1.00;;;;;;5012377;28;20210;-52
2022/10/05 13:55:55;;;;;;;2.40;1.10;;;20.40;1.00;;;;;;5021947;28;20703;-52
2022/10/05 13:58:44;;;;;;;1.93;1.10;;;20.30;1.00;;;;;;5015177;28;20713;-52
2022/10/05 14:01:23;;;;;;;1.57;1.13;;;20.10;1.00;;;;;;5016639;28;20227;-53
2022/10/05 14:04:40;;;;;;;2.60;1.30;;;19.90;1.00;;;;;;5018738;28;20208;-54
2022/10/05 14:07:35;;;;;;;3.70;1.10;;;19.80;1.00;;;;;;5026102;28;20229;-51
2022/10/05 14:10:11;;;;;;;2.00;1.33;;;19.90;1.00;;;;;;5020794;28;20285;-51
2022/10/05 14:12:44;;;;;;;5.77;1.20;;;19.80;1.00;;;;;;5016923;28;20203;-51
2022/10/05 14:15:31;;;;;;;5.13;1.47;;;19.60;1.00;;;;;;5026759;28;20624;-52
2022/10/05 14:17:58;;;;;;;2.27;1.20;;;19.60;1.00;;;;;;5023087;28;20212;-52
2022/10/05 14:20:30;;;;;;;2.73;1.13;;;19.60;6.10;;;;;;5017418;28;20199;-51
2022/10/05 14:23:01;;;;;;;5.20;1.20;;;19.60;99.90;;;;;;5020333;28;20292;-54
2022/10/05 14:25:29;;;;;;;2.60;1.30;;;19.60;85.00;;;;;;5016265;28;20310;-51
2022/10/05 14:28:19;;;;;;;1.73;1.30;;;19.70;1.00;;;;;;5021628;28;20304;-51